Time;durP1;ratioP1;P1;durP2;ratioP2;P2;SDS_P1;SDS_P2;PMS_P1;PMS_P2;Temp;Humidity;BMP_temperature;BMP_pressure;BME280_temperature;BME280_humidity;BME280_pressure;Samples;Min_cycle;Max_cycle;Signal;HPM_P1;HPM_P2
2023/03/07 00:02:07;;;;;;;6.47;4.30;;;7.50;99.90;;;;;;5094216;28;20100;-44
2023/03/07 00:04:33;;;;;;;6.50;4.18;;;7.60;99.90;;;;;;5094116;28;20470;-44
2023/03/07 00:06:59;;;;;;;7.72;4.82;;;7.80;99.90;;;;;;5094228;28;20107;-47
2023/03/07 00:09:25;;;;;;;6.03;4.22;;;8.10;99.90;;;;;;5094172;28;20127;-43
2023/03/07 00:11:51;;;;;;;5.75;4.20;;;8.20;99.90;;;;;;5094726;28;20059;-43
2023/03/07 00:14:17;;;;;;;6.50;4.60;;;8.10;99.90;;;;;;5093865;28;20036;-44
2023/03/07 00:16:43;;;;;;;8.77;4.90;;;8.00;99.90;;;;;;5092925;28;20032;-46
2023/03/07 00:19:09;;;;;;;6.63;4.55;;;7.90;99.90;;;;;;5093942;28;20051;-44
2023/03/07 00:21:34;;;;;;;5.88;4.00;;;7.90;99.90;;;;;;5093834;28;20016;-42
2023/03/07 00:24:00;;;;;;;5.80;4.55;;;7.80;99.90;;;;;;5092411;28;20059;-43
2023/03/07 00:26:27;;;;;;;6.82;4.53;;;7.70;99.90;;;;;;5093524;28;20032;-45
2023/03/07 00:28:54;;;;;;;6.30;4.35;;;7.70;99.90;;;;;;5093551;28;20370;-44
2023/03/07 00:31:21;;;;;;;7.53;4.43;;;7.60;99.90;;;;;;5092457;28;20027;-46
2023/03/07 00:33:47;;;;;;;7.43;4.13;;;7.60;99.90;;;;;;5093858;28;20077;-42
2023/03/07 00:36:19;;;;;;;6.95;4.53;;;7.60;99.90;;;;;;5093336;28;20436;-41
2023/03/07 00:38:44;;;;;;;5.63;4.22;;;7.50;99.90;;;;;;5093525;28;20028;-44
2023/03/07 00:41:13;;;;;;;6.00;4.40;;;7.50;99.90;;;;;;5093044;28;20062;-44
2023/03/07 00:43:38;;;;;;;7.93;4.70;;;7.50;99.90;;;;;;5092672;28;20020;-46
2023/03/07 00:46:05;;;;;;;6.20;4.50;;;7.50;99.90;;;;;;5093140;28;20103;-42
2023/03/07 00:48:36;;;;;;;6.88;4.60;;;7.50;99.90;;;;;;5093399;28;20020;-44
2023/03/07 00:51:02;;;;;;;6.18;4.28;;;7.50;99.90;;;;;;5093376;28;20100;-44
2023/03/07 00:53:28;;;;;;;6.03;4.30;;;7.50;99.90;;;;;;5093305;28;20055;-42
2023/03/07 00:55:59;;;;;;;7.78;4.32;;;7.50;99.90;;;;;;5092959;28;20517;-42
2023/03/07 00:58:27;;;;;;;6.32;4.05;;;7.40;99.90;;;;;;5093378;28;20047;-43
2023/03/07 01:00:53;;;;;;;6.85;4.32;;;7.50;99.90;;;;;;5093350;28;20031;-43
2023/03/07 01:03:19;;;;;;;6.05;4.50;;;7.50;99.90;;;;;;5093046;28;20028;-44
2023/03/07 01:05:45;;;;;;;6.53;4.05;;;7.60;99.90;;;;;;5092852;28;20036;-47
2023/03/07 01:08:11;;;;;;;6.60;4.22;;;8.00;99.90;;;;;;5092979;28;20027;-43
2023/03/07 01:10:37;;;;;;;6.78;3.88;;;8.10;99.90;;;;;;5093149;28;20489;-44
2023/03/07 01:13:03;;;;;;;6.78;5.00;;;8.10;99.90;;;;;;5092817;28;20027;-43
2023/03/07 01:15:28;;;;;;;6.45;4.25;;;8.00;99.90;;;;;;5091846;28;20038;-41
2023/03/07 01:17:54;;;;;;;6.78;4.40;;;8.00;99.90;;;;;;5092498;28;20028;-42
2023/03/07 01:20:20;;;;;;;8.90;4.40;;;7.80;99.90;;;;;;5092789;28;20171;-46
2023/03/07 01:22:45;;;;;;;7.15;4.22;;;7.80;99.90;;;;;;5092606;28;20039;-44
2023/03/07 01:25:12;;;;;;;5.63;3.95;;;7.70;99.90;;;;;;5092581;28;20051;-44
2023/03/07 01:27:38;;;;;;;6.18;4.43;;;7.70;99.90;;;;;;5092342;28;20020;-45
2023/03/07 01:30:06;;;;;;;6.95;4.30;;;7.60;99.90;;;;;;5092619;28;20020;-42
2023/03/07 01:32:31;;;;;;;6.30;4.28;;;7.60;99.90;;;;;;5092385;28;20020;-44
2023/03/07 01:34:57;;;;;;;5.53;3.85;;;7.50;99.90;;;;;;5092489;28;20031;-42
2023/03/07 01:37:23;;;;;;;6.85;4.90;;;7.50;99.90;;;;;;5092241;28;20288;-44
2023/03/07 01:39:52;;;;;;;6.95;4.32;;;7.50;99.90;;;;;;5092392;28;20031;-47
2023/03/07 01:42:19;;;;;;;8.00;4.82;;;7.50;99.90;;;;;;5092208;28;20111;-44
2023/03/07 01:44:57;;;;;;;5.07;4.03;;;7.50;99.90;;;;;;5092148;28;20032;-42
2023/03/07 01:47:23;;;;;;;6.53;4.18;;;7.50;99.90;;;;;;5092033;28;20024;-44
2023/03/07 01:49:49;;;;;;;6.60;4.22;;;7.50;99.90;;;;;;5092413;28;20047;-43
2023/03/07 01:52:19;;;;;;;5.57;4.18;;;7.50;99.90;;;;;;5092129;28;20028;-44
2023/03/07 01:54:50;;;;;;;6.75;4.10;;;7.50;99.90;;;;;;5091735;28;20032;-46
2023/03/07 01:57:18;;;;;;;6.47;4.40;;;7.50;99.90;;;;;;5091790;28;20032;-44
2023/03/07 01:59:47;;;;;;;7.50;4.95;;;7.40;99.90;;;;;;5091833;28;20051;-44
2023/03/07 02:02:16;;;;;;;6.88;4.75;;;7.40;99.90;;;;;;5091924;28;20032;-41
2023/03/07 02:04:58;;;;;;;7.90;4.68;;;7.50;99.90;;;;;;5092107;28;20368;-45
2023/03/07 02:07:30;;;;;;;7.03;4.32;;;7.80;99.90;;;;;;5092209;28;20052;-43
2023/03/07 02:09:57;;;;;;;6.28;4.28;;;8.10;99.90;;;;;;5091715;28;20052;-43
2023/03/07 02:12:23;;;;;;;7.75;4.13;;;8.10;99.90;;;;;;5091922;28;20058;-44
2023/03/07 02:14:49;;;;;;;5.82;4.13;;;8.00;99.90;;;;;;5091791;28;20051;-42
2023/03/07 02:17:16;;;;;;;7.93;4.93;;;7.90;99.90;;;;;;5091929;28;20035;-43
2023/03/07 02:19:49;;;;;;;7.20;4.57;;;7.80;99.90;;;;;;5091726;28;20032;-41
2023/03/07 02:22:17;;;;;;;6.18;4.35;;;7.80;99.90;;;;;;5091697;28;20030;-42
2023/03/07 02:25:01;;;;;;;6.60;4.43;;;7.70;99.90;;;;;;5091469;28;20419;-40
2023/03/07 02:27:29;;;;;;;6.77;4.43;;;7.70;99.90;;;;;;5091376;28;20030;-47
2023/03/07 02:29:55;;;;;;;6.60;4.13;;;7.60;99.90;;;;;;5091520;28;20341;-46
2023/03/07 02:32:20;;;;;;;7.25;4.60;;;7.50;99.90;;;;;;5091565;28;20111;-46
2023/03/07 02:34:46;;;;;;;7.18;4.40;;;7.50;99.90;;;;;;5091495;28;20026;-43
2023/03/07 02:37:26;;;;;;;5.80;4.35;;;7.50;99.90;;;;;;5091145;28;20512;-45
2023/03/07 02:39:53;;;;;;;6.22;4.22;;;7.50;99.90;;;;;;5091518;28;20031;-43
2023/03/07 02:42:27;;;;;;;6.18;3.80;;;7.50;99.90;;;;;;5091406;28;20107;-46
2023/03/07 02:44:57;;;;;;;;;;;7.50;99.90;;;;;;5091782;28;20089;-42
2023/03/07 02:47:23;;;;;;;7.53;4.47;;;7.50;99.90;;;;;;5091056;28;20441;-44
2023/03/07 02:49:48;;;;;;;7.88;4.95;;;7.40;99.90;;;;;;5091372;28;20115;-45
2023/03/07 02:52:14;;;;;;;5.93;4.00;;;7.40;99.90;;;;;;5091249;28;20039;-44
2023/03/07 02:54:39;;;;;;;8.60;4.28;;;7.40;99.90;;;;;;5091360;28;20021;-41
2023/03/07 02:57:05;;;;;;;6.88;4.35;;;7.40;99.90;;;;;;5091303;28;20482;-44
2023/03/07 02:59:31;;;;;;;6.60;4.35;;;7.40;99.90;;;;;;5091221;28;20024;-44
2023/03/07 03:01:57;;;;;;;7.95;4.47;;;7.40;99.90;;;;;;5091673;28;20425;-47
2023/03/07 03:04:22;;;;;;;7.00;4.43;;;7.50;99.90;;;;;;5091254;28;20028;-42
2023/03/07 03:06:48;;;;;;;6.05;4.20;;;7.70;99.90;;;;;;5094473;28;20390;-42
2023/03/07 03:09:14;;;;;;;6.25;4.53;;;8.10;99.90;;;;;;5095333;28;20023;-44
2023/03/07 03:11:40;;;;;;;6.07;3.78;;;8.10;99.90;;;;;;5095279;28;20028;-42
2023/03/07 03:14:05;;;;;;;6.18;4.38;;;8.10;99.90;;;;;;5095201;28;20538;-42
2023/03/07 03:16:31;;;;;;;7.22;4.78;;;8.00;99.90;;;;;;5094899;28;20023;-45
2023/03/07 03:18:56;;;;;;;8.15;4.60;;;7.90;99.90;;;;;;5095041;28;20146;-47
2023/03/07 03:21:22;;;;;;;7.25;4.70;;;7.80;99.90;;;;;;5095028;28;20030;-44
2023/03/07 03:23:48;;;;;;;6.68;3.85;;;7.70;99.90;;;;;;5095092;28;20027;-43
2023/03/07 03:26:13;;;;;;;6.45;4.45;;;7.70;99.90;;;;;;5094913;28;20107;-43
2023/03/07 03:28:39;;;;;;;6.38;4.45;;;7.60;99.90;;;;;;5095444;28;20028;-42
2023/03/07 03:31:13;;;;;;;5.50;4.07;;;7.60;99.90;;;;;;5095007;28;20028;-47
2023/03/07 03:33:39;;;;;;;6.45;4.30;;;7.50;99.90;;;;;;5094873;28;20517;-44
2023/03/07 03:36:11;;;;;;;6.45;4.35;;;7.50;99.90;;;;;;5093415;28;20036;-44
2023/03/07 03:38:38;;;;;;;6.38;4.32;;;7.50;99.90;;;;;;5094719;28;20028;-42
2023/03/07 03:41:09;;;;;;;6.55;4.50;;;7.40;99.90;;;;;;5095472;28;20474;-42
2023/03/07 03:43:34;;;;;;;8.27;4.68;;;7.50;99.90;;;;;;5094904;28;20032;-42
2023/03/07 03:46:00;;;;;;;6.13;3.92;;;7.40;99.90;;;;;;5094184;28;20032;-43
2023/03/07 03:48:27;;;;;;;7.32;4.65;;;7.40;99.90;;;;;;5094621;28;20386;-43
2023/03/07 03:51:07;;;;;;;7.25;4.82;;;7.40;99.90;;;;;;5094498;28;20027;-43
2023/03/07 03:53:35;;;;;;;6.30;4.32;;;7.40;99.90;;;;;;5094348;28;20024;-43
2023/03/07 03:56:05;;;;;;;6.00;3.97;;;7.40;99.90;;;;;;5094206;28;20016;-44
2023/03/07 03:58:32;;;;;;;6.75;4.15;;;7.40;99.90;;;;;;5094344;28;20069;-43
2023/03/07 04:01:04;;;;;;;6.88;4.55;;;7.40;99.90;;;;;;5094347;28;20128;-44
2023/03/07 04:03:32;;;;;;;7.65;4.88;;;7.40;99.90;;;;;;5094311;28;20024;-42
2023/03/07 04:06:09;;;;;;;5.35;4.07;;;7.60;99.90;;;;;;5093974;28;20031;-43
2023/03/07 04:08:36;;;;;;;7.03;4.55;;;8.00;99.90;;;;;;5094484;28;20064;-44
2023/03/07 04:11:03;;;;;;;8.27;4.68;;;8.10;99.90;;;;;;5094120;28;20017;-45
2023/03/07 04:13:29;;;;;;;7.03;4.45;;;8.10;99.90;;;;;;5094170;28;20389;-42
2023/03/07 04:15:54;;;;;;;7.80;4.72;;;8.00;99.90;;;;;;5093542;28;20020;-42
2023/03/07 04:18:21;;;;;;;5.95;4.03;;;7.90;99.90;;;;;;5094112;28;20024;-47
2023/03/07 04:20:48;;;;;;;6.60;4.85;;;7.80;99.90;;;;;;5093997;28;20021;-44
2023/03/07 04:23:14;;;;;;;7.40;4.38;;;7.80;99.90;;;;;;5094177;28;20170;-44
2023/03/07 04:25:45;;;;;;;7.85;4.88;;;7.70;99.90;;;;;;5093765;28;20035;-44
2023/03/07 04:28:11;;;;;;;7.05;4.65;;;7.60;99.90;;;;;;5093751;28;20109;-44
2023/03/07 04:30:36;;;;;;;7.63;4.88;;;7.60;99.90;;;;;;5093890;28;20050;-41
2023/03/07 04:33:02;;;;;;;6.90;4.43;;;7.50;99.90;;;;;;5093650;28;20111;-43
2023/03/07 04:35:28;;;;;;;6.90;4.25;;;7.50;99.90;;;;;;5094112;28;20020;-44
2023/03/07 04:37:53;;;;;;;8.10;4.95;;;7.40;99.90;;;;;;5093348;28;20447;-43
2023/03/07 04:40:19;;;;;;;6.57;4.65;;;7.50;99.90;;;;;;5093802;28;20547;-45
2023/03/07 04:42:45;;;;;;;7.95;5.05;;;7.40;99.90;;;;;;5093433;28;20024;-43
2023/03/07 04:45:10;;;;;;;7.05;4.90;;;7.40;99.90;;;;;;5093381;28;20377;-46
2023/03/07 04:47:36;;;;;;;6.88;4.50;;;7.40;99.90;;;;;;5093171;28;20039;-47
2023/03/07 04:50:02;;;;;;;7.10;4.30;;;7.40;99.90;;;;;;5093431;28;20042;-42
2023/03/07 04:52:27;;;;;;;5.63;4.10;;;7.40;99.90;;;;;;5093351;28;20016;-47
2023/03/07 04:54:53;;;;;;;6.00;4.38;;;7.40;99.90;;;;;;5093559;28;20101;-44
2023/03/07 04:57:18;;;;;;;8.50;4.97;;;7.40;99.90;;;;;;5093050;28;20020;-42
2023/03/07 04:59:44;;;;;;;6.88;4.55;;;7.40;99.90;;;;;;5093120;28;20118;-43
2023/03/07 05:02:12;;;;;;;7.25;5.05;;;7.40;99.90;;;;;;5093287;28;20486;-44
2023/03/07 05:04:38;;;;;;;8.15;4.97;;;7.50;99.90;;;;;;5093036;28;20028;-41
2023/03/07 05:07:04;;;;;;;7.00;4.75;;;7.70;99.90;;;;;;5092620;28;20103;-44
2023/03/07 05:09:30;;;;;;;7.38;4.57;;;8.10;99.90;;;;;;5094242;28;20103;-44
2023/03/07 05:11:56;;;;;;;7.35;4.55;;;8.10;99.90;;;;;;5092824;28;20080;-43
2023/03/07 05:14:21;;;;;;;6.28;4.55;;;8.10;99.90;;;;;;5092941;28;20028;-42
2023/03/07 05:16:47;;;;;;;8.32;5.00;;;8.00;99.90;;;;;;5091339;28;20024;-47
2023/03/07 05:19:12;;;;;;;5.47;4.30;;;7.90;99.90;;;;;;5092876;28;20044;-45
2023/03/07 05:21:40;;;;;;;5.90;4.63;;;7.80;99.90;;;;;;5092537;28;20107;-44
2023/03/07 05:24:06;;;;;;;5.40;3.72;;;7.70;99.90;;;;;;5092613;28;20467;-44
2023/03/07 05:26:32;;;;;;;8.05;5.43;;;7.70;99.90;;;;;;5092356;28;20536;-44
2023/03/07 05:28:59;;;;;;;7.70;5.00;;;7.60;99.90;;;;;;5093633;28;20308;-44
2023/03/07 05:31:25;;;;;;;7.90;4.93;;;7.50;99.90;;;;;;5091372;28;20047;-46
2023/03/07 05:33:50;;;;;;;6.80;4.90;;;7.50;99.90;;;;;;5092498;28;20024;-43
2023/03/07 05:36:16;;;;;;;5.57;4.47;;;7.40;99.90;;;;;;5092543;28;20051;-41
2023/03/07 05:38:42;;;;;;;6.78;4.90;;;7.40;99.90;;;;;;5093402;28;20032;-42
2023/03/07 05:41:08;;;;;;;6.80;4.25;;;7.40;99.90;;;;;;5091230;28;20035;-43
2023/03/07 05:43:34;;;;;;;7.80;5.13;;;7.30;99.90;;;;;;5092298;28;20394;-46
2023/03/07 05:45:59;;;;;;;7.43;5.07;;;7.30;99.90;;;;;;5092011;28;20024;-44
2023/03/07 05:48:25;;;;;;;6.15;4.72;;;7.30;99.90;;;;;;5092222;28;20523;-45
2023/03/07 05:50:51;;;;;;;7.35;4.88;;;7.30;99.90;;;;;;5092107;28;20082;-47
2023/03/07 05:53:16;;;;;;;7.07;4.97;;;7.30;99.90;;;;;;5092146;28;20020;-46
2023/03/07 05:55:42;;;;;;;6.90;4.55;;;7.30;99.90;;;;;;5092007;28;20028;-45
2023/03/07 05:58:08;;;;;;;6.97;4.47;;;7.30;99.90;;;;;;5091991;28;20068;-44
2023/03/07 06:00:34;;;;;;;7.00;5.00;;;7.30;99.90;;;;;;5090574;28;20119;-47
2023/03/07 06:03:03;;;;;;;6.95;4.78;;;7.30;99.90;;;;;;5092367;28;20024;-43
2023/03/07 06:05:29;;;;;;;8.13;5.03;;;7.40;99.90;;;;;;5091795;28;20046;-44
2023/03/07 06:07:54;;;;;;;6.18;4.18;;;7.70;99.90;;;;;;5091839;28;20017;-42
2023/03/07 06:10:20;;;;;;;7.28;5.18;;;8.00;99.90;;;;;;5091872;28;20030;-47
2023/03/07 06:12:50;;;;;;;8.25;4.75;;;8.00;99.90;;;;;;5091813;28;20024;-41
2023/03/07 06:15:16;;;;;;;7.03;4.57;;;7.90;99.90;;;;;;5092867;28;20400;-44
2023/03/07 06:17:42;;;;;;;6.70;4.93;;;7.80;99.90;;;;;;5092524;28;20032;-46
2023/03/07 06:20:09;;;;;;;8.77;5.35;;;7.70;99.90;;;;;;5092540;28;20038;-47
2023/03/07 06:22:36;;;;;;;7.28;4.93;;;7.70;99.90;;;;;;5091680;28;20038;-44
2023/03/07 06:25:03;;;;;;;7.43;4.45;;;7.60;99.90;;;;;;5091618;28;20024;-44
2023/03/07 06:27:32;;;;;;;9.25;5.55;;;7.50;99.90;;;;;;5091399;28;20478;-43
2023/03/07 06:29:58;;;;;;;7.55;4.70;;;7.50;99.90;;;;;;5091572;28;20024;-43
2023/03/07 06:32:23;;;;;;;9.85;5.18;;;7.40;99.90;;;;;;5091427;28;20085;-45
2023/03/07 06:34:49;;;;;;;8.65;5.03;;;7.40;99.90;;;;;;5091434;28;20020;-45
2023/03/07 06:37:15;;;;;;;6.80;4.68;;;7.30;99.90;;;;;;5091226;28;20032;-44
2023/03/07 06:39:41;;;;;;;7.45;4.55;;;7.30;99.90;;;;;;5091449;28;20027;-43
2023/03/07 06:42:07;;;;;;;8.20;5.50;;;7.30;99.90;;;;;;5091364;28;20024;-44
2023/03/07 06:44:33;;;;;;;7.20;5.15;;;7.30;99.90;;;;;;5091315;28;20027;-43
2023/03/07 06:46:58;;;;;;;6.25;4.78;;;7.30;99.90;;;;;;5091102;28;20300;-42
2023/03/07 06:49:24;;;;;;;6.10;4.63;;;7.30;99.90;;;;;;5089997;28;20470;-44
2023/03/07 06:51:50;;;;;;;6.13;4.35;;;7.30;99.90;;;;;;5091234;28;20374;-44
2023/03/07 06:54:15;;;;;;;7.97;4.97;;;7.30;99.90;;;;;;5091309;28;20070;-41
2023/03/07 06:56:41;;;;;;;6.38;4.38;;;7.30;99.90;;;;;;5091422;28;20482;-42
2023/03/07 06:59:07;;;;;;;7.30;4.53;;;7.30;99.90;;;;;;5091149;28;20024;-45
2023/03/07 07:01:34;;;;;;;8.55;4.90;;;7.30;99.90;;;;;;5091144;28;20035;-47
2023/03/07 07:04:00;;;;;;;6.53;4.28;;;7.30;99.90;;;;;;5091645;28;20023;-45
2023/03/07 07:06:25;;;;;;;6.30;4.45;;;7.60;99.90;;;;;;5090870;28;20032;-47
2023/03/07 07:08:56;;;;;;;5.97;4.32;;;7.90;99.90;;;;;;5091347;28;20069;-46
2023/03/07 07:11:23;;;;;;;7.10;5.00;;;8.00;99.90;;;;;;5091110;28;20466;-44
2023/03/07 07:13:49;;;;;;;7.25;5.07;;;7.90;99.90;;;;;;5091166;28;20028;-43
2023/03/07 07:16:15;;;;;;;8.40;5.03;;;7.80;99.90;;;;;;5090837;28;20028;-42
2023/03/07 07:18:41;;;;;;;8.05;5.47;;;7.70;99.90;;;;;;5091063;28;20024;-42
2023/03/07 07:21:07;;;;;;;8.85;5.00;;;7.70;99.90;;;;;;5091064;28;20028;-44
2023/03/07 07:23:32;;;;;;;6.57;4.30;;;7.60;99.90;;;;;;5091105;28;20035;-44
2023/03/07 07:25:58;;;;;;;6.45;4.45;;;7.60;99.90;;;;;;5090706;28;20028;-42
2023/03/07 07:28:24;;;;;;;7.00;4.22;;;7.50;99.90;;;;;;5090905;28;20055;-42
2023/03/07 07:30:50;;;;;;;7.53;4.57;;;7.50;99.90;;;;;;5090834;28;20051;-44
2023/03/07 07:33:16;;;;;;;6.75;4.50;;;7.40;99.90;;;;;;5090861;28;20470;-46
2023/03/07 07:35:43;;;;;;;6.60;4.38;;;7.40;99.90;;;;;;5091642;28;20024;-41
2023/03/07 07:38:08;;;;;;;6.13;4.30;;;7.40;99.90;;;;;;5091048;28;20163;-44
2023/03/07 07:40:34;;;;;;;7.78;4.22;;;7.40;99.90;;;;;;5091136;28;20116;-43
2023/03/07 07:42:59;;;;;;;5.95;4.45;;;7.40;99.90;;;;;;5090792;28;20069;-44
2023/03/07 07:45:25;;;;;;;6.53;4.60;;;7.40;99.90;;;;;;5090642;28;20382;-45
2023/03/07 07:47:51;;;;;;;8.05;4.40;;;7.40;99.90;;;;;;5090574;28;20020;-41
2023/03/07 07:50:21;;;;;;;7.20;4.03;;;7.40;99.90;;;;;;5090739;28;20020;-46
2023/03/07 07:52:47;;;;;;;6.57;4.07;;;7.40;99.90;;;;;;5093710;28;20031;-46
2023/03/07 07:55:13;;;;;;;6.28;4.22;;;7.40;99.90;;;;;;5094803;28;20036;-44
2023/03/07 07:57:40;;;;;;;6.28;4.32;;;7.40;99.90;;;;;;5094243;28;20416;-41
2023/03/07 08:00:07;;;;;;;6.20;4.30;;;7.40;99.90;;;;;;5094180;28;20444;-46
2023/03/07 08:02:35;;;;;;;7.05;4.40;;;7.40;99.90;;;;;;5094061;28;20111;-47
2023/03/07 08:05:00;;;;;;;6.25;4.28;;;7.40;99.90;;;;;;5094214;28;20032;-45
2023/03/07 08:07:26;;;;;;;6.30;4.10;;;7.40;99.90;;;;;;5094321;28;20023;-44
2023/03/07 08:09:52;;;;;;;4.97;3.45;;;7.40;99.90;;;;;;5094723;28;20571;-46
2023/03/07 08:12:17;;;;;;;6.97;3.78;;;7.40;99.90;;;;;;5094055;28;20466;-42
2023/03/07 08:14:43;;;;;;;6.93;4.47;;;7.40;99.90;;;;;;5093964;28;20119;-46
2023/03/07 08:17:09;;;;;;;6.50;3.92;;;7.40;99.90;;;;;;5093795;28;20031;-44
2023/03/07 08:19:34;;;;;;;4.93;3.75;;;7.40;99.90;;;;;;5093964;28;20028;-42
2023/03/07 08:22:01;;;;;;;6.25;3.83;;;7.40;99.90;;;;;;5093983;28;20055;-46
2023/03/07 08:24:27;;;;;;;6.20;3.83;;;7.40;99.90;;;;;;5093813;28;20028;-45
2023/03/07 08:26:52;;;;;;;6.85;3.95;;;7.40;99.90;;;;;;5093611;28;20055;-41
2023/03/07 08:29:18;;;;;;;6.78;3.70;;;7.40;99.90;;;;;;5093684;28;20035;-44
2023/03/07 08:31:44;;;;;;;5.80;3.55;;;7.40;99.90;;;;;;5093858;28;20020;-43
2023/03/07 08:34:11;;;;;;;5.40;3.33;;;7.40;99.90;;;;;;5093685;28;20028;-44
2023/03/07 08:36:38;;;;;;;5.75;3.88;;;7.40;99.90;;;;;;5093398;28;20024;-43
2023/03/07 08:39:03;;;;;;;6.03;3.85;;;7.50;99.90;;;;;;5093511;28;20493;-43
2023/03/07 08:41:29;;;;;;;7.22;4.10;;;7.50;99.90;;;;;;5093459;28;20039;-45
2023/03/07 08:43:55;;;;;;;6.80;4.20;;;7.50;99.90;;;;;;5093613;28;20035;-42
2023/03/07 08:46:20;;;;;;;4.85;3.75;;;7.50;99.90;;;;;;5093396;28;20020;-45
2023/03/07 08:48:46;;;;;;;11.45;7.15;;;7.50;99.90;;;;;;5093349;28;20026;-44
2023/03/07 08:51:14;;;;;;;11.30;7.43;;;7.40;99.90;;;;;;5091909;28;20466;-45
2023/03/07 08:53:42;;;;;;;12.13;7.00;;;7.30;99.90;;;;;;5093160;28;20024;-44
2023/03/07 08:56:13;;;;;;;9.80;6.70;;;7.30;99.90;;;;;;5092942;28;20034;-44
2023/03/07 08:58:39;;;;;;;10.07;6.75;;;7.30;99.90;;;;;;5093222;28;20097;-43
2023/03/07 09:01:07;;;;;;;12.77;6.95;;;7.30;99.90;;;;;;5094366;28;20486;-43
2023/03/07 09:03:33;;;;;;;11.65;7.60;;;7.30;99.90;;;;;;5091645;28;20481;-43
2023/03/07 09:06:00;;;;;;;10.88;6.78;;;7.30;99.90;;;;;;5092768;28;20032;-43
2023/03/07 09:08:25;;;;;;;12.27;6.72;;;7.30;99.90;;;;;;5093075;28;20359;-43
2023/03/07 09:10:51;;;;;;;11.05;7.40;;;7.30;99.90;;;;;;5091866;28;20022;-43
2023/03/07 09:13:17;;;;;;;12.13;7.00;;;7.30;99.90;;;;;;5091437;28;20024;-43
2023/03/07 09:15:44;;;;;;;13.07;7.20;;;7.30;99.90;;;;;;5092599;28;20103;-44
2023/03/07 09:18:10;;;;;;;12.18;6.47;;;7.20;99.90;;;;;;5092613;28;20043;-43
2023/03/07 09:20:39;;;;;;;9.65;6.40;;;7.30;99.90;;;;;;5093149;28;20028;-43
2023/03/07 09:23:07;;;;;;;10.73;6.55;;;7.30;99.90;;;;;;5092583;28;20474;-43
2023/03/07 09:25:32;;;;;;;12.52;6.30;;;7.30;99.90;;;;;;5092567;28;20032;-43
2023/03/07 09:27:58;;;;;;;8.45;5.97;;;7.30;99.90;;;;;;5092332;28;20024;-43
2023/03/07 09:30:26;;;;;;;9.65;5.55;;;7.30;99.90;;;;;;5092372;28;20024;-44
2023/03/07 09:32:52;;;;;;;8.13;5.80;;;7.30;99.90;;;;;;5092576;28;20016;-43
2023/03/07 09:35:18;;;;;;;8.63;6.07;;;7.30;99.90;;;;;;5092787;28;20024;-43
2023/03/07 09:37:43;;;;;;;8.13;5.30;;;7.30;99.90;;;;;;5092159;28;20028;-43
2023/03/07 09:40:18;;;;;;;9.02;5.50;;;7.30;99.90;;;;;;5092670;28;20020;-43
2023/03/07 09:43:06;;;;;;;7.47;5.70;;;7.40;99.90;;;;;;5092253;28;20036;-43
2023/03/07 09:45:50;;;;;;;9.70;5.65;;;7.30;99.90;;;;;;5092127;28;20099;-43
2023/03/07 09:48:46;;;;;;;7.00;5.15;;;7.40;99.90;;;;;;5092197;28;20024;-43
2023/03/07 09:51:44;;;;;;;7.15;4.82;;;7.30;99.90;;;;;;5092121;28;20024;-43
2023/03/07 09:54:18;;;;;;;5.88;4.65;;;7.30;99.90;;;;;;5090927;28;20040;-43
2023/03/07 09:56:56;;;;;;;8.18;5.07;;;7.30;99.90;;;;;;5090557;28;20024;-43
2023/03/07 09:59:33;;;;;;;8.57;4.82;;;7.30;99.90;;;;;;5091970;28;20485;-43
2023/03/07 10:02:22;;;;;;;8.02;4.80;;;7.30;99.90;;;;;;5092152;28;20046;-43
2023/03/07 10:05:09;;;;;;;7.35;4.95;;;7.30;99.90;;;;;;5091661;28;20024;-47
2023/03/07 10:07:35;;;;;;;7.40;4.60;;;7.30;99.90;;;;;;5091592;28;20504;-45
2023/03/07 10:10:09;;;;;;;7.22;4.82;;;7.30;99.90;;;;;;5091972;28;20024;-42
2023/03/07 10:12:57;;;;;;;6.93;4.32;;;7.30;99.90;;;;;;5091906;28;20393;-44
2023/03/07 10:15:46;;;;;;;6.85;5.00;;;7.30;99.90;;;;;;5091436;28;20028;-44
2023/03/07 10:18:44;;;;;;;6.50;4.47;;;7.30;99.90;;;;;;5091611;28;20043;-44
2023/03/07 10:21:42;;;;;;;5.53;3.97;;;7.30;99.90;;;;;;5091963;28;20024;-44
2023/03/07 10:24:21;;;;;;;5.82;4.15;;;7.30;99.90;;;;;;5091522;28;20027;-45
2023/03/07 10:26:59;;;;;;;8.77;4.65;;;7.30;99.90;;;;;;5091559;28;20024;-43
2023/03/07 10:29:31;;;;;;;8.00;4.60;;;7.30;99.90;;;;;;5091808;28;20024;-43
2023/03/07 10:32:33;;;;;;;7.10;4.30;;;7.30;99.90;;;;;;5091416;28;20077;-47
2023/03/07 10:35:14;;;;;;;7.00;4.35;;;7.30;99.90;;;;;;5091470;28;20027;-46
2023/03/07 10:37:50;;;;;;;5.22;4.00;;;7.30;99.90;;;;;;5091175;28;20032;-45
2023/03/07 10:40:33;;;;;;;6.57;3.88;;;7.30;99.90;;;;;;5091384;28;20031;-46
2023/03/07 10:42:59;;;;;;;7.15;4.22;;;7.30;99.90;;;;;;5091234;28;20077;-48
2023/03/07 10:45:30;;;;;;;5.75;4.15;;;7.30;99.90;;;;;;5091945;28;20024;-48
2023/03/07 10:48:06;;;;;;;5.63;3.80;;;7.30;99.90;;;;;;5092016;28;20095;-45
2023/03/07 10:50:55;;;;;;;8.05;3.53;;;7.30;99.90;;;;;;5091360;28;20077;-45
2023/03/07 10:53:24;;;;;;;7.03;4.05;;;7.30;99.90;;;;;;5091116;28;20486;-46
2023/03/07 10:55:51;;;;;;;7.03;3.75;;;7.30;99.90;;;;;;5091080;28;20107;-45
2023/03/07 10:58:24;;;;;;;6.72;4.07;;;7.30;99.90;;;;;;5091223;28;20619;-42
2023/03/07 11:01:12;;;;;;;7.40;4.05;;;7.30;99.90;;;;;;5091301;28;20036;-44
2023/03/07 11:03:50;;;;;;;5.60;3.55;;;7.30;99.90;;;;;;5091225;28;20363;-44
2023/03/07 11:06:30;;;;;;;7.82;4.25;;;7.30;99.90;;;;;;5090879;28;20100;-43
2023/03/07 11:09:06;;;;;;;6.45;4.18;;;7.30;99.90;;;;;;5091132;28;20025;-43
2023/03/07 11:11:32;;;;;;;5.72;3.78;;;7.30;99.90;;;;;;5091010;28;20020;-44
2023/03/07 11:14:09;;;;;;;6.05;3.80;;;7.30;99.90;;;;;;5090906;28;20066;-45
2023/03/07 11:17:01;;;;;;;5.65;4.10;;;7.30;99.90;;;;;;5090763;28;20020;-43
2023/03/07 11:19:53;;;;;;;7.03;3.42;;;7.20;99.90;;;;;;5091362;28;20465;-48
2023/03/07 11:22:21;;;;;;;5.85;3.67;;;7.30;99.90;;;;;;5089845;28;20036;-44
2023/03/07 11:25:00;;;;;;;7.05;4.00;;;7.30;99.90;;;;;;5090880;28;20028;-44
2023/03/07 11:27:52;;;;;;;7.03;3.65;;;7.30;99.90;;;;;;5093414;28;20027;-45
2023/03/07 11:30:18;;;;;;;6.60;3.85;;;7.20;99.90;;;;;;5094818;28;20099;-45
2023/03/07 11:33:00;;;;;;;6.35;3.80;;;7.30;99.90;;;;;;5094741;28;20162;-42
2023/03/07 11:36:04;;;;;;;5.85;3.75;;;7.30;99.90;;;;;;5094807;28;20099;-45
2023/03/07 11:39:10;;;;;;;6.35;3.97;;;7.30;99.90;;;;;;5071849;28;20067;-45
2023/03/07 11:41:40;;;;;;;4.93;3.80;;;7.30;99.90;;;;;;5054886;28;20128;-45
2023/03/07 11:44:48;;;;;;;5.45;3.78;;;7.30;99.90;;;;;;5089304;28;20595;-49
2023/03/07 11:47:38;;;;;;;11.30;7.40;;;7.30;99.90;;;;;;5094794;28;20394;-48
2023/03/07 11:50:10;;;;;;;10.32;6.93;;;7.10;99.90;;;;;;5094754;28;20023;-44
2023/03/07 11:52:50;;;;;;;10.73;7.10;;;7.10;99.90;;;;;;5095286;28;20019;-47
2023/03/07 11:55:40;;;;;;;9.30;6.45;;;7.10;99.90;;;;;;5094506;28;20366;-48
2023/03/07 11:58:29;;;;;;;9.25;6.32;;;7.10;99.90;;;;;;5094426;28;20028;-47
2023/03/07 12:01:07;;;;;;;10.60;6.95;;;7.10;99.90;;;;;;5094700;28;20540;-43
2023/03/07 12:03:54;;;;;;;11.77;6.78;;;7.10;99.90;;;;;;5094628;28;20020;-46
2023/03/07 12:06:32;;;;;;;11.70;6.15;;;7.20;99.90;;;;;;5094285;28;20028;-46
2023/03/07 12:09:21;;;;;;;8.98;6.18;;;7.10;99.90;;;;;;5094220;28;20012;-46
2023/03/07 12:11:46;;;;;;;8.75;5.57;;;7.10;99.90;;;;;;5094064;28;20024;-46
2023/03/07 12:14:21;;;;;;;11.10;6.05;;;7.20;99.90;;;;;;5093969;28;20493;-46
2023/03/07 12:16:55;;;;;;;9.00;5.68;;;7.20;99.90;;;;;;5093863;28;20111;-46
2023/03/07 12:19:21;;;;;;;;;;;7.20;99.90;;;;;;5094521;28;20074;-46
2023/03/07 12:22:01;;;;;;;9.05;5.40;;;7.20;99.90;;;;;;5094358;28;20315;-46
2023/03/07 12:24:34;;;;;;;8.32;5.15;;;7.20;99.90;;;;;;5094118;28;20024;-46
2023/03/07 12:27:08;;;;;;;7.20;5.03;;;7.20;99.90;;;;;;5093585;28;20020;-45
2023/03/07 12:29:39;;;;;;;10.70;5.47;;;7.20;99.90;;;;;;5093850;28;20028;-46
2023/03/07 12:32:22;;;;;;;9.15;5.47;;;7.30;99.90;;;;;;5093702;28;20397;-46
2023/03/07 12:35:07;;;;;;;7.97;4.95;;;7.30;99.90;;;;;;5093649;28;20020;-45
2023/03/07 12:37:43;;;;;;;7.30;4.85;;;7.30;99.90;;;;;;5093255;28;20367;-46
2023/03/07 12:40:36;;;;;;;7.57;4.65;;;7.30;99.90;;;;;;5093668;28;20081;-46
2023/03/07 12:43:37;;;;;;;7.47;4.60;;;7.30;99.90;;;;;;5093514;28;20033;-46
2023/03/07 12:46:31;;;;;;;6.93;4.60;;;7.30;99.90;;;;;;5081438;28;20059;-46
2023/03/07 12:49:15;;;;;;;7.22;4.25;;;7.40;99.90;;;;;;5093450;28;20675;-45
2023/03/07 12:51:48;;;;;;;5.68;4.40;;;7.40;99.90;;;;;;5093317;28;20047;-46
2023/03/07 12:54:33;;;;;;;6.90;3.75;;;7.40;99.90;;;;;;5093372;28;20023;-45
2023/03/07 12:57:19;;;;;;;6.93;4.07;;;7.40;99.90;;;;;;5092989;28;20490;-46
2023/03/07 12:59:44;;;;;;;6.95;3.88;;;7.50;99.90;;;;;;5093189;28;20043;-46
2023/03/07 13:02:16;;;;;;;5.30;3.50;;;7.50;99.90;;;;;;5091745;28;20106;-46
2023/03/07 13:04:42;;;;;;;5.63;3.85;;;7.50;99.90;;;;;;5092899;28;20035;-46
2023/03/07 13:07:27;;;;;;;5.50;3.60;;;7.50;99.90;;;;;;5092842;28;20020;-44
2023/03/07 13:09:54;;;;;;;;;;;7.50;99.90;;;;;;5093538;28;20016;-44
2023/03/07 13:12:23;;;;;;;5.68;3.78;;;7.50;99.90;;;;;;5092982;28;19904;-48
2023/03/07 13:14:55;;;;;;;5.47;3.20;;;7.60;99.90;;;;;;5091623;28;20077;-48